sensor_id;sensor_type;location;lat;lon;timestamp;pressure;altitude;pressure_sealevel;temperature;humidity
72975;BME280;61166;54.228;37.632;2022-10-17T00:02:25;100799.97;;;3.58;nan
72975;BME280;61166;54.228;37.632;2022-10-17T00:04:51;100797.50;;;3.57;nan
72975;BME280;61166;54.228;37.632;2022-10-17T00:07:18;100789.94;;;3.54;nan
72975;BME280;61166;54.228;37.632;2022-10-17T00:09:44;100786.25;;;3.56;nan
72975;BME280;61166;54.228;37.632;2022-10-17T00:12:11;100783.22;;;3.51;nan
72975;BME280;61166;54.228;37.632;2022-10-17T00:14:37;100786.66;;;3.52;nan
72975;BME280;61166;54.228;37.632;2022-10-17T00:17:04;100786.19;;;3.47;nan
72975;BME280;61166;54.228;37.632;2022-10-17T00:19:31;100783.19;;;3.42;nan
72975;BME280;61166;54.228;37.632;2022-10-17T00:21:58;100793.59;;;3.42;nan
72975;BME280;61166;54.228;37.632;2022-10-17T00:24:24;100777.84;;;3.43;nan
72975;BME280;61166;54.228;37.632;2022-10-17T00:26:51;100788.25;;;3.43;nan
72975;BME280;61166;54.228;37.632;2022-10-17T00:29:17;100772.91;;;3.40;nan
72975;BME280;61166;54.228;37.632;2022-10-17T00:31:44;100774.22;;;3.35;nan
72975;BME280;61166;54.228;37.632;2022-10-17T00:34:11;100783.94;;;3.33;nan
72975;BME280;61166;54.228;37.632;2022-10-17T00:36:38;100777.91;;;3.32;nan
72975;BME280;61166;54.228;37.632;2022-10-17T00:39:04;100777.19;;;3.30;nan
72975;BME280;61166;54.228;37.632;2022-10-17T00:41:32;100780.31;;;3.24;nan
72975;BME280;61166;54.228;37.632;2022-10-17T00:46:36;100776.78;;;3.14;nan
72975;BME280;61166;54.228;37.632;2022-10-17T00:49:12;100773.94;;;3.17;nan
72975;BME280;61166;54.228;37.632;2022-10-17T00:51:58;100770.66;;;3.15;nan
72975;BME280;61166;54.228;37.632;2022-10-17T00:54:30;100772.78;;;3.10;nan
72975;BME280;61166;54.228;37.632;2022-10-17T00:57:00;100775.28;;;3.11;nan
72975;BME280;61166;54.228;37.632;2022-10-17T00:59:27;100768.25;;;3.23;nan
72975;BME280;61166;54.228;37.632;2022-10-17T01:02:06;100769.28;;;3.31;nan
72975;BME280;61166;54.228;37.632;2022-10-17T01:04:35;100770.31;;;3.40;nan
72975;BME280;61166;54.228;37.632;2022-10-17T01:07:02;100769.47;;;3.40;nan
72975;BME280;61166;54.228;37.632;2022-10-17T01:09:29;100760.03;;;3.39;nan
72975;BME280;61166;54.228;37.632;2022-10-17T01:12:06;100760.72;;;3.41;nan
72975;BME280;61166;54.228;37.632;2022-10-17T01:14:42;100760.84;;;3.39;nan
72975;BME280;61166;54.228;37.632;2022-10-17T01:17:22;100760.16;;;3.37;nan
72975;BME280;61166;54.228;37.632;2022-10-17T01:32:01;100747.66;;;3.31;nan
72975;BME280;61166;54.228;37.632;2022-10-17T01:34:32;100739.84;;;3.31;nan
72975;BME280;61166;54.228;37.632;2022-10-17T01:37:07;100731.09;;;3.32;nan
72975;BME280;61166;54.228;37.632;2022-10-17T01:44:54;100734.44;;;3.23;nan
72975;BME280;61166;54.228;37.632;2022-10-17T01:47:25;100735.59;;;3.30;nan
72975;BME280;61166;54.228;37.632;2022-10-17T01:49:55;100733.44;;;3.35;nan
72975;BME280;61166;54.228;37.632;2022-10-17T01:52:47;100724.81;;;3.35;nan
72975;BME280;61166;54.228;37.632;2022-10-17T01:55:20;100731.03;;;3.43;nan
72975;BME280;61166;54.228;37.632;2022-10-17T01:57:51;100728.44;;;3.43;nan
72975;BME280;61166;54.228;37.632;2022-10-17T02:00:21;100724.69;;;3.36;nan
72975;BME280;61166;54.228;37.632;2022-10-17T02:02:52;100715.00;;;3.38;nan
72975;BME280;61166;54.228;37.632;2022-10-17T02:05:23;100716.50;;;3.41;nan
72975;BME280;61166;54.228;37.632;2022-10-17T02:07:51;100712.97;;;3.42;nan
72975;BME280;61166;54.228;37.632;2022-10-17T02:10:31;100723.25;;;3.43;nan
72975;BME280;61166;54.228;37.632;2022-10-17T02:21:21;100697.88;;;3.66;nan
72975;BME280;61166;54.228;37.632;2022-10-17T02:24:00;100694.22;;;3.78;nan
72975;BME280;61166;54.228;37.632;2022-10-17T02:26:36;100693.97;;;3.81;nan
72975;BME280;61166;54.228;37.632;2022-10-17T02:29:16;100693.31;;;3.89;nan
72975;BME280;61166;54.228;37.632;2022-10-17T02:32:12;100687.59;;;3.95;nan
72975;BME280;61166;54.228;37.632;2022-10-17T02:34:46;100690.75;;;3.98;nan
72975;BME280;61166;54.228;37.632;2022-10-17T02:37:17;100687.34;;;3.98;nan
72975;BME280;61166;54.228;37.632;2022-10-17T02:39:45;100692.53;;;3.98;nan
72975;BME280;61166;54.228;37.632;2022-10-17T02:42:13;100692.66;;;3.96;nan
72975;BME280;61166;54.228;37.632;2022-10-17T02:44:42;100678.84;;;3.96;nan
72975;BME280;61166;54.228;37.632;2022-10-17T02:47:22;100683.78;;;3.99;nan
72975;BME280;61166;54.228;37.632;2022-10-17T02:49:53;100679.53;;;3.98;nan
72975;BME280;61166;54.228;37.632;2022-10-17T02:54:53;100680.22;;;4.00;nan
72975;BME280;61166;54.228;37.632;2022-10-17T02:57:27;100671.72;;;3.98;nan
72975;BME280;61166;54.228;37.632;2022-10-17T02:59:57;100670.50;;;4.02;nan
72975;BME280;61166;54.228;37.632;2022-10-17T03:02:26;100678.31;;;4.12;nan
72975;BME280;61166;54.228;37.632;2022-10-17T03:04:53;100668.16;;;4.09;nan
72975;BME280;61166;54.228;37.632;2022-10-17T03:07:20;100663.22;;;4.06;nan
72975;BME280;61166;54.228;37.632;2022-10-17T03:09:46;100673.91;;;4.03;nan
72975;BME280;61166;54.228;37.632;2022-10-17T03:12:13;100674.06;;;4.01;nan
72975;BME280;61166;54.228;37.632;2022-10-17T03:14:39;100670.63;;;4.01;nan
72975;BME280;61166;54.228;37.632;2022-10-17T03:17:06;100663.91;;;3.98;nan
72975;BME280;61166;54.228;37.632;2022-10-17T03:19:32;100673.91;;;4.03;nan
72975;BME280;61166;54.228;37.632;2022-10-17T03:21:59;100678.16;;;4.04;nan
72975;BME280;61166;54.228;37.632;2022-10-17T03:24:25;100678.00;;;4.05;nan
72975;BME280;61166;54.228;37.632;2022-10-17T03:26:52;100678.84;;;4.15;nan
72975;BME280;61166;54.228;37.632;2022-10-17T03:29:18;100669.94;;;4.08;nan
72975;BME280;61166;54.228;37.632;2022-10-17T03:31:45;100669.25;;;4.06;nan
72975;BME280;61166;54.228;37.632;2022-10-17T03:34:12;100670.19;;;4.05;nan
72975;BME280;61166;54.228;37.632;2022-10-17T03:36:38;100667.88;;;4.02;nan
72975;BME280;61166;54.228;37.632;2022-10-17T03:39:05;100660.22;;;4.01;nan
72975;BME280;61166;54.228;37.632;2022-10-17T03:41:31;100653.75;;;3.95;nan
72975;BME280;61166;54.228;37.632;2022-10-17T03:43:58;100654.72;;;3.94;nan
72975;BME280;61166;54.228;37.632;2022-10-17T03:46:24;100648.16;;;4.00;nan
72975;BME280;61166;54.228;37.632;2022-10-17T03:48:51;100655.00;;;4.01;nan
72975;BME280;61166;54.228;37.632;2022-10-17T03:51:17;100655.56;;;4.04;nan
72975;BME280;61166;54.228;37.632;2022-10-17T03:53:44;100644.59;;;4.10;nan
72975;BME280;61166;54.228;37.632;2022-10-17T03:56:21;100631.56;;;4.10;nan
72975;BME280;61166;54.228;37.632;2022-10-17T03:58:49;100643.22;;;4.06;nan
72975;BME280;61166;54.228;37.632;2022-10-17T04:01:17;100635.00;;;4.01;nan
72975;BME280;61166;54.228;37.632;2022-10-17T04:03:50;100641.97;;;3.91;nan
72975;BME280;61166;54.228;37.632;2022-10-17T04:06:17;100656.19;;;3.87;nan
72975;BME280;61166;54.228;37.632;2022-10-17T04:08:44;100642.00;;;4.10;nan
72975;BME280;61166;54.228;37.632;2022-10-17T04:11:14;100642.47;;;4.54;nan
72975;BME280;61166;54.228;37.632;2022-10-17T04:13:42;100642.44;;;4.73;nan
72975;BME280;61166;54.228;37.632;2022-10-17T04:16:15;100644.91;;;4.65;nan
72975;BME280;61166;54.228;37.632;2022-10-17T04:18:43;100642.06;;;4.49;nan
72975;BME280;61166;54.228;37.632;2022-10-17T04:21:10;100645.47;;;4.40;nan
72975;BME280;61166;54.228;37.632;2022-10-17T04:23:37;100656.44;;;4.34;nan
72975;BME280;61166;54.228;37.632;2022-10-17T04:26:05;100650.69;;;4.40;nan
72975;BME280;61166;54.228;37.632;2022-10-17T04:28:32;100647.81;;;4.43;nan
72975;BME280;61166;54.228;37.632;2022-10-17T04:31:04;100647.25;;;4.49;nan
72975;BME280;61166;54.228;37.632;2022-10-17T04:33:32;100640.41;;;4.57;nan
72975;BME280;61166;54.228;37.632;2022-10-17T04:36:00;100639.69;;;4.65;nan
72975;BME280;61166;54.228;37.632;2022-10-17T04:38:28;100628.72;;;4.71;nan
72975;BME280;61166;54.228;37.632;2022-10-17T04:40:59;100641.47;;;4.74;nan
72975;BME280;61166;54.228;37.632;2022-10-17T04:43:26;100639.97;;;4.72;nan
72975;BME280;61166;54.228;37.632;2022-10-17T04:45:52;100644.09;;;4.74;nan
72975;BME280;61166;54.228;37.632;2022-10-17T04:48:19;100637.22;;;4.73;nan
72975;BME280;61166;54.228;37.632;2022-10-17T04:50:59;100636.28;;;4.64;nan
72975;BME280;61166;54.228;37.632;2022-10-17T04:53:26;100636.69;;;4.79;nan
72975;BME280;61166;54.228;37.632;2022-10-17T04:55:53;100627.63;;;4.93;nan
72975;BME280;61166;54.228;37.632;2022-10-17T04:58:20;100625.97;;;5.39;nan
72975;BME280;61166;54.228;37.632;2022-10-17T05:00:47;100616.97;;;6.15;nan
72975;BME280;61166;54.228;37.632;2022-10-17T05:03:14;100620.25;;;5.62;nan
72975;BME280;61166;54.228;37.632;2022-10-17T05:05:41;100611.03;;;5.31;nan
72975;BME280;61166;54.228;37.632;2022-10-17T05:08:09;100613.16;;;5.18;nan
72975;BME280;61166;54.228;37.632;2022-10-17T05:10:37;100607.44;;;5.05;nan
72975;BME280;61166;54.228;37.632;2022-10-17T05:13:04;100605.38;;;4.98;nan
72975;BME280;61166;54.228;37.632;2022-10-17T05:15:30;100627.88;;;5.00;nan
72975;BME280;61166;54.228;37.632;2022-10-17T05:17:57;100611.25;;;5.10;nan
72975;BME280;61166;54.228;37.632;2022-10-17T05:20:24;100621.50;;;5.21;nan
72975;BME280;61166;54.228;37.632;2022-10-17T05:22:51;100611.75;;;5.60;nan
72975;BME280;61166;54.228;37.632;2022-10-17T05:25:18;100614.19;;;5.99;nan
72975;BME280;61166;54.228;37.632;2022-10-17T05:27:45;100607.47;;;6.93;nan
72975;BME280;61166;54.228;37.632;2022-10-17T05:30:12;100606.78;;;8.36;nan
72975;BME280;61166;54.228;37.632;2022-10-17T05:32:38;100597.31;;;9.39;nan
72975;BME280;61166;54.228;37.632;2022-10-17T05:35:05;100594.63;;;11.00;nan
72975;BME280;61166;54.228;37.632;2022-10-17T05:37:32;100602.50;;;10.48;nan
72975;BME280;61166;54.228;37.632;2022-10-17T05:39:59;100599.06;;;8.99;nan
72975;BME280;61166;54.228;37.632;2022-10-17T05:42:25;100604.66;;;8.47;nan
72975;BME280;61166;54.228;37.632;2022-10-17T05:44:52;100597.78;;;8.71;nan
72975;BME280;61166;54.228;37.632;2022-10-17T05:47:19;100593.88;;;10.08;nan
72975;BME280;61166;54.228;37.632;2022-10-17T05:49:45;100591.84;;;10.64;nan
72975;BME280;61166;54.228;37.632;2022-10-17T05:52:17;100599.53;;;9.19;nan
72975;BME280;61166;54.228;37.632;2022-10-17T05:54:44;100593.69;;;8.52;nan
72975;BME280;61166;54.228;37.632;2022-10-17T05:57:11;100583.06;;;10.03;nan
72975;BME280;61166;54.228;37.632;2022-10-17T05:59:37;100582.91;;;9.74;nan
72975;BME280;61166;54.228;37.632;2022-10-17T06:02:04;100578.50;;;9.97;nan
72975;BME280;61166;54.228;37.632;2022-10-17T06:04:30;100573.88;;;12.00;nan
72975;BME280;61166;54.228;37.632;2022-10-17T06:06:57;100574.44;;;12.87;nan
72975;BME280;61166;54.228;37.632;2022-10-17T06:09:24;100556.06;;;15.28;nan
72975;BME280;61166;54.228;37.632;2022-10-17T06:11:50;100551.47;;;15.62;nan
72975;BME280;61166;54.228;37.632;2022-10-17T06:14:17;100557.50;;;12.05;nan
72975;BME280;61166;54.228;37.632;2022-10-17T06:16:43;100564.41;;;10.81;nan
72975;BME280;61166;54.228;37.632;2022-10-17T06:19:10;100559.53;;;11.37;nan
72975;BME280;61166;54.228;37.632;2022-10-17T06:21:36;100560.78;;;10.82;nan
72975;BME280;61166;54.228;37.632;2022-10-17T06:24:03;100542.66;;;10.04;nan
72975;BME280;61166;54.228;37.632;2022-10-17T06:26:30;100551.72;;;9.71;nan
72975;BME280;61166;54.228;37.632;2022-10-17T06:28:56;100545.97;;;9.98;nan
72975;BME280;61166;54.228;37.632;2022-10-17T06:31:23;100547.75;;;11.84;nan
72975;BME280;61166;54.228;37.632;2022-10-17T06:33:49;100550.81;;;15.15;nan
72975;BME280;61166;54.228;37.632;2022-10-17T06:36:16;100536.09;;;16.71;nan
72975;BME280;61166;54.228;37.632;2022-10-17T06:38:43;100543.41;;;16.19;nan
72975;BME280;61166;54.228;37.632;2022-10-17T06:41:11;100542.94;;;14.62;nan
72975;BME280;61166;54.228;37.632;2022-10-17T06:43:40;100537.09;;;13.18;nan
72975;BME280;61166;54.228;37.632;2022-10-17T06:46:07;100538.19;;;13.85;nan
72975;BME280;61166;54.228;37.632;2022-10-17T06:48:34;100533.38;;;14.48;nan
72975;BME280;61166;54.228;37.632;2022-10-17T06:51:01;100537.38;;;14.04;nan
72975;BME280;61166;54.228;37.632;2022-10-17T06:53:29;100539.38;;;15.21;nan
72975;BME280;61166;54.228;37.632;2022-10-17T06:55:56;100549.50;;;15.50;nan
72975;BME280;61166;54.228;37.632;2022-10-17T06:58:23;100523.25;;;16.37;nan
72975;BME280;61166;54.228;37.632;2022-10-17T07:00:49;100540.97;;;17.47;nan
72975;BME280;61166;54.228;37.632;2022-10-17T07:03:16;100535.56;;;18.67;nan
72975;BME280;61166;54.228;37.632;2022-10-17T07:05:50;100546.59;;;19.06;nan
72975;BME280;61166;54.228;37.632;2022-10-17T07:08:16;100539.34;;;19.70;nan
72975;BME280;61166;54.228;37.632;2022-10-17T07:10:43;100542.25;;;20.59;nan
72975;BME280;61166;54.228;37.632;2022-10-17T07:13:09;100543.00;;;20.93;nan
72975;BME280;61166;54.228;37.632;2022-10-17T07:15:37;100533.03;;;20.88;nan
72975;BME280;61166;54.228;37.632;2022-10-17T07:18:04;100528.91;;;21.41;nan
72975;BME280;61166;54.228;37.632;2022-10-17T07:20:31;100531.38;;;20.65;nan
72975;BME280;61166;54.228;37.632;2022-10-17T07:22:57;100526.25;;;20.81;nan
72975;BME280;61166;54.228;37.632;2022-10-17T07:25:24;100522.38;;;21.10;nan
72975;BME280;61166;54.228;37.632;2022-10-17T07:27:51;100515.69;;;20.52;nan
72975;BME280;61166;54.228;37.632;2022-10-17T07:30:19;100523.88;;;20.46;nan
72975;BME280;61166;54.228;37.632;2022-10-17T07:32:46;100515.19;;;20.72;nan
72975;BME280;61166;54.228;37.632;2022-10-17T07:35:13;100500.63;;;19.16;nan
72975;BME280;61166;54.228;37.632;2022-10-17T07:37:40;100497.03;;;19.10;nan
72975;BME280;61166;54.228;37.632;2022-10-17T07:40:07;100479.88;;;20.36;nan
72975;BME280;61166;54.228;37.632;2022-10-17T07:42:37;100486.84;;;19.59;nan
72975;BME280;61166;54.228;37.632;2022-10-17T07:45:05;100487.91;;;17.71;nan
72975;BME280;61166;54.228;37.632;2022-10-17T07:47:32;100489.97;;;15.84;nan
72975;BME280;61166;54.228;37.632;2022-10-17T07:49:58;100500.75;;;14.94;nan
72975;BME280;61166;54.228;37.632;2022-10-17T07:52:25;100484.84;;;13.88;nan
72975;BME280;61166;54.228;37.632;2022-10-17T07:54:52;100481.13;;;13.49;nan
72975;BME280;61166;54.228;37.632;2022-10-17T07:57:18;100496.31;;;13.00;nan
72975;BME280;61166;54.228;37.632;2022-10-17T07:59:45;100493.75;;;12.78;nan
72975;BME280;61166;54.228;37.632;2022-10-17T08:02:19;100495.19;;;13.15;nan
72975;BME280;61166;54.228;37.632;2022-10-17T08:04:46;100477.34;;;13.78;nan
72975;BME280;61166;54.228;37.632;2022-10-17T08:07:12;100464.94;;;13.79;nan
72975;BME280;61166;54.228;37.632;2022-10-17T08:09:48;100472.59;;;13.54;nan
72975;BME280;61166;54.228;37.632;2022-10-17T08:12:15;100467.72;;;13.58;nan
72975;BME280;61166;54.228;37.632;2022-10-17T08:14:42;100471.63;;;13.68;nan
72975;BME280;61166;54.228;37.632;2022-10-17T08:17:09;100455.16;;;12.77;nan
72975;BME280;61166;54.228;37.632;2022-10-17T08:19:39;100469.31;;;12.35;nan
72975;BME280;61166;54.228;37.632;2022-10-17T08:22:06;100440.81;;;11.96;nan
72975;BME280;61166;54.228;37.632;2022-10-17T08:24:33;100465.78;;;11.79;nan
72975;BME280;61166;54.228;37.632;2022-10-17T08:27:00;100454.34;;;11.36;nan
72975;BME280;61166;54.228;37.632;2022-10-17T08:29:26;100460.88;;;11.40;nan
72975;BME280;61166;54.228;37.632;2022-10-17T08:31:53;100460.97;;;11.46;nan
72975;BME280;61166;54.228;37.632;2022-10-17T08:34:26;100463.09;;;11.21;nan
72975;BME280;61166;54.228;37.632;2022-10-17T08:36:52;100442.16;;;10.99;nan
72975;BME280;61166;54.228;37.632;2022-10-17T08:39:19;100450.72;;;10.86;nan
72975;BME280;61166;54.228;37.632;2022-10-17T08:47:14;100456.66;;;10.36;nan
72975;BME280;61166;54.228;37.632;2022-10-17T08:49:51;100443.88;;;10.47;nan
72975;BME280;61166;54.228;37.632;2022-10-17T08:52:44;100436.28;;;10.38;nan
72975;BME280;61166;54.228;37.632;2022-10-17T08:55:30;100437.63;;;10.34;nan
72975;BME280;61166;54.228;37.632;2022-10-17T08:57:58;100435.53;;;10.44;nan
72975;BME280;61166;54.228;37.632;2022-10-17T09:00:25;100437.53;;;10.56;nan
72975;BME280;61166;54.228;37.632;2022-10-17T09:06:21;100444.06;;;10.61;nan
72975;BME280;61166;54.228;37.632;2022-10-17T09:11:39;100442.06;;;10.33;nan
72975;BME280;61166;54.228;37.632;2022-10-17T09:14:37;100430.00;;;10.39;nan
72975;BME280;61166;54.228;37.632;2022-10-17T09:17:24;100436.00;;;10.33;nan
72975;BME280;61166;54.228;37.632;2022-10-17T09:20:05;100431.78;;;10.23;nan
72975;BME280;61166;54.228;37.632;2022-10-17T09:23:08;100418.00;;;9.99;nan
72975;BME280;61166;54.228;37.632;2022-10-17T09:25:40;100424.63;;;9.94;nan
72975;BME280;61166;54.228;37.632;2022-10-17T09:28:33;100419.47;;;10.01;nan
72975;BME280;61166;54.228;37.632;2022-10-17T09:31:22;100428.81;;;10.04;nan
72975;BME280;61166;54.228;37.632;2022-10-17T09:33:51;100434.31;;;9.94;nan
72975;BME280;61166;54.228;37.632;2022-10-17T09:39:11;100433.28;;;9.80;nan
72975;BME280;61166;54.228;37.632;2022-10-17T09:41:41;100427.91;;;9.74;nan
72975;BME280;61166;54.228;37.632;2022-10-17T09:46:54;100426.34;;;9.34;nan
72975;BME280;61166;54.228;37.632;2022-10-17T09:49:34;100425.38;;;9.04;nan
72975;BME280;61166;54.228;37.632;2022-10-17T09:52:10;100427.13;;;8.72;nan
72975;BME280;61166;54.228;37.632;2022-10-17T09:54:49;100431.00;;;8.37;nan
72975;BME280;61166;54.228;37.632;2022-10-17T09:57:18;100434.94;;;8.01;nan
72975;BME280;61166;54.228;37.632;2022-10-17T10:00:23;100422.81;;;7.83;nan
72975;BME280;61166;54.228;37.632;2022-10-17T10:05:36;100391.88;;;7.71;nan
72975;BME280;61166;54.228;37.632;2022-10-17T10:08:14;100394.66;;;7.69;nan
72975;BME280;61166;54.228;37.632;2022-10-17T10:10:42;100398.41;;;7.67;nan
72975;BME280;61166;54.228;37.632;2022-10-17T10:15:48;100394.66;;;7.69;nan
72975;BME280;61166;54.228;37.632;2022-10-17T10:18:34;100406.28;;;7.75;nan
72975;BME280;61166;54.228;37.632;2022-10-17T10:21:10;100390.41;;;7.76;nan
72975;BME280;61166;54.228;37.632;2022-10-17T10:24:24;100385.97;;;7.60;nan
72975;BME280;61166;54.228;37.632;2022-10-17T10:32:23;100381.38;;;7.54;nan
72975;BME280;61166;54.228;37.632;2022-10-17T10:34:55;100401.84;;;7.67;nan
72975;BME280;61166;54.228;37.632;2022-10-17T10:37:34;100397.75;;;7.65;nan
72975;BME280;61166;54.228;37.632;2022-10-17T10:42:34;100411.50;;;7.58;nan
72975;BME280;61166;54.228;37.632;2022-10-17T10:45:21;100387.97;;;7.50;nan
72975;BME280;61166;54.228;37.632;2022-10-17T10:48:36;100391.22;;;7.44;nan
72975;BME280;61166;54.228;37.632;2022-10-17T10:51:04;100366.53;;;7.47;nan
72975;BME280;61166;54.228;37.632;2022-10-17T10:54:01;100361.09;;;7.40;nan
72975;BME280;61166;54.228;37.632;2022-10-17T10:56:35;100364.72;;;7.39;nan
72975;BME280;61166;54.228;37.632;2022-10-17T11:01:55;100353.91;;;7.58;nan
72975;BME280;61166;54.228;37.632;2022-10-17T11:04:35;100359.13;;;7.67;nan
72975;BME280;61166;54.228;37.632;2022-10-17T11:07:11;100362.41;;;7.69;nan
72975;BME280;61166;54.228;37.632;2022-10-17T11:10:04;100366.84;;;7.68;nan
72975;BME280;61166;54.228;37.632;2022-10-17T11:12:57;100346.22;;;7.73;nan
72975;BME280;61166;54.228;37.632;2022-10-17T11:18:02;100351.28;;;7.58;nan
72975;BME280;61166;54.228;37.632;2022-10-17T11:23:39;100322.84;;;7.47;nan
72975;BME280;61166;54.228;37.632;2022-10-17T11:26:11;100310.06;;;7.52;nan
72975;BME280;61166;54.228;37.632;2022-10-17T11:28:38;100299.56;;;7.60;nan
72975;BME280;61166;54.228;37.632;2022-10-17T11:31:11;100328.69;;;7.74;nan
72975;BME280;61166;54.228;37.632;2022-10-17T11:33:46;100317.56;;;7.63;nan
72975;BME280;61166;54.228;37.632;2022-10-17T11:36:15;100302.19;;;7.69;nan
72975;BME280;61166;54.228;37.632;2022-10-17T11:39:02;100323.13;;;7.77;nan
72975;BME280;61166;54.228;37.632;2022-10-17T11:41:36;100317.22;;;7.91;nan
72975;BME280;61166;54.228;37.632;2022-10-17T11:44:36;100315.41;;;8.00;nan
72975;BME280;61166;54.228;37.632;2022-10-17T11:49:52;100308.97;;;8.10;nan
72975;BME280;61166;54.228;37.632;2022-10-17T11:52:42;100296.69;;;8.19;nan
72975;BME280;61166;54.228;37.632;2022-10-17T11:55:27;100298.78;;;8.23;nan
72975;BME280;61166;54.228;37.632;2022-10-17T11:58:16;100292.88;;;8.29;nan
72975;BME280;61166;54.228;37.632;2022-10-17T12:01:12;100288.78;;;8.27;nan
72975;BME280;61166;54.228;37.632;2022-10-17T12:06:51;100283.03;;;8.40;nan
72975;BME280;61166;54.228;37.632;2022-10-17T12:12:01;100285.03;;;8.38;nan
72975;BME280;61166;54.228;37.632;2022-10-17T12:17:20;100288.97;;;8.34;nan
72975;BME280;61166;54.228;37.632;2022-10-17T12:19:48;100294.22;;;8.34;nan
72975;BME280;61166;54.228;37.632;2022-10-17T12:22:20;100278.63;;;8.40;nan
72975;BME280;61166;54.228;37.632;2022-10-17T12:25:01;100282.38;;;8.46;nan
72975;BME280;61166;54.228;37.632;2022-10-17T12:27:42;100271.72;;;8.47;nan
72975;BME280;61166;54.228;37.632;2022-10-17T12:33:13;100282.28;;;8.62;nan
72975;BME280;61166;54.228;37.632;2022-10-17T12:35:41;100282.16;;;8.55;nan
72975;BME280;61166;54.228;37.632;2022-10-17T12:45:54;100274.34;;;8.70;nan
72975;BME280;61166;54.228;37.632;2022-10-17T12:51:17;100277.31;;;8.67;nan
72975;BME280;61166;54.228;37.632;2022-10-17T12:54:12;100262.00;;;8.56;nan
72975;BME280;61166;54.228;37.632;2022-10-17T12:56:47;100284.81;;;8.47;nan
72975;BME280;61166;54.228;37.632;2022-10-17T12:59:16;100284.69;;;8.41;nan
72975;BME280;61166;54.228;37.632;2022-10-17T13:01:47;100275.31;;;8.46;nan
72975;BME280;61166;54.228;37.632;2022-10-17T13:04:15;100270.03;;;8.54;nan
72975;BME280;61166;54.228;37.632;2022-10-17T13:06:47;100263.00;;;8.55;nan
72975;BME280;61166;54.228;37.632;2022-10-17T13:11:51;100256.63;;;8.49;nan
72975;BME280;61166;54.228;37.632;2022-10-17T13:14:20;100244.28;;;8.58;nan
72975;BME280;61166;54.228;37.632;2022-10-17T13:17:03;100243.66;;;8.56;nan
72975;BME280;61166;54.228;37.632;2022-10-17T13:19:44;100249.88;;;8.55;nan
72975;BME280;61166;54.228;37.632;2022-10-17T13:22:17;100244.78;;;8.62;nan
72975;BME280;61166;54.228;37.632;2022-10-17T13:24:45;100237.91;;;8.60;nan
72975;BME280;61166;54.228;37.632;2022-10-17T13:27:32;100242.72;;;8.72;nan
72975;BME280;61166;54.228;37.632;2022-10-17T13:30:01;100254.63;;;8.59;nan
72975;BME280;61166;54.228;37.632;2022-10-17T13:32:36;100246.13;;;8.49;nan
72975;BME280;61166;54.228;37.632;2022-10-17T13:35:09;100244.16;;;8.51;nan
72975;BME280;61166;54.228;37.632;2022-10-17T13:37:38;100248.13;;;8.47;nan
72975;BME280;61166;54.228;37.632;2022-10-17T13:40:05;100240.09;;;8.49;nan
72975;BME280;61166;54.228;37.632;2022-10-17T13:42:54;100235.78;;;8.56;nan
72975;BME280;61166;54.228;37.632;2022-10-17T13:45:33;100220.44;;;8.45;nan
72975;BME280;61166;54.228;37.632;2022-10-17T13:48:04;100231.22;;;8.50;nan
72975;BME280;61166;54.228;37.632;2022-10-17T13:50:37;100226.81;;;8.50;nan
72975;BME280;61166;54.228;37.632;2022-10-17T13:53:31;100227.09;;;8.55;nan
72975;BME280;61166;54.228;37.632;2022-10-17T13:56:19;100233.00;;;8.57;nan
72975;BME280;61166;54.228;37.632;2022-10-17T13:58:57;100237.53;;;8.64;nan
72975;BME280;61166;54.228;37.632;2022-10-17T14:01:26;100233.47;;;8.61;nan
72975;BME280;61166;54.228;37.632;2022-10-17T14:03:53;100239.06;;;8.58;nan
72975;BME280;61166;54.228;37.632;2022-10-17T14:06:40;100231.34;;;8.56;nan
72975;BME280;61166;54.228;37.632;2022-10-17T14:09:31;100224.25;;;8.65;nan
72975;BME280;61166;54.228;37.632;2022-10-17T14:12:02;100227.63;;;8.74;nan
72975;BME280;61166;54.228;37.632;2022-10-17T14:14:31;100235.38;;;8.67;nan
72975;BME280;61166;54.228;37.632;2022-10-17T14:17:23;100218.81;;;8.67;nan
72975;BME280;61166;54.228;37.632;2022-10-17T14:19:53;100219.94;;;8.72;nan
72975;BME280;61166;54.228;37.632;2022-10-17T14:22:41;100218.28;;;8.71;nan
72975;BME280;61166;54.228;37.632;2022-10-17T14:25:34;100223.66;;;8.78;nan
72975;BME280;61166;54.228;37.632;2022-10-17T14:28:11;100226.47;;;8.76;nan
72975;BME280;61166;54.228;37.632;2022-10-17T14:30:39;100220.88;;;8.79;nan
72975;BME280;61166;54.228;37.632;2022-10-17T14:33:29;100222.16;;;8.83;nan
72975;BME280;61166;54.228;37.632;2022-10-17T14:35:58;100224.59;;;8.85;nan
72975;BME280;61166;54.228;37.632;2022-10-17T14:38:27;100224.47;;;8.78;nan
72975;BME280;61166;54.228;37.632;2022-10-17T14:41:07;100217.44;;;8.79;nan
72975;BME280;61166;54.228;37.632;2022-10-17T14:44:06;100196.97;;;8.74;nan
72975;BME280;61166;54.228;37.632;2022-10-17T14:46:44;100206.75;;;8.80;nan
72975;BME280;61166;54.228;37.632;2022-10-17T14:49:21;100220.88;;;8.79;nan
72975;BME280;61166;54.228;37.632;2022-10-17T14:52:10;100214.47;;;8.82;nan
72975;BME280;61166;54.228;37.632;2022-10-17T14:54:47;100230.19;;;8.82;nan
72975;BME280;61166;54.228;37.632;2022-10-17T14:57:17;100211.50;;;8.85;nan
72975;BME280;61166;54.228;37.632;2022-10-17T14:59:44;100203.97;;;8.82;nan
72975;BME280;61166;54.228;37.632;2022-10-17T15:02:20;100211.31;;;8.86;nan
72975;BME280;61166;54.228;37.632;2022-10-17T15:04:47;100216.22;;;8.89;nan
72975;BME280;61166;54.228;37.632;2022-10-17T15:07:15;100216.78;;;9.00;nan
72975;BME280;61166;54.228;37.632;2022-10-17T15:09:42;100228.16;;;8.92;nan
72975;BME280;61166;54.228;37.632;2022-10-17T15:12:20;100222.75;;;8.93;nan